Viimsi — ES2084 — position and weather

sailwx.info

Track history (hours):
 
Tides and Currents Weather Stations Pressure Air Temp Water Temp Dewpoint Dewpoint Depression Visibility Wind Speed Wind Dir Waves Ship Positions

Viimsi

Last reported at 2017-Jan-21 23:06 UTC. Time now 2017-Jan-22 06:05 UTC.
Position N 59°29' E 024°33'.

Length 78 m; draft 4 m.

Type: Ship. MMSI: 276297000.

Date/timePositionNaut miles runAvg speedWind from/ knotsBaromVisibWave heightAir tempDewpointWater temp
2017-Jan-21 23:06N 59°29' E 024°33'0 0.0
2017-Jan-21 20:13N 59°29' E 024°33'5 1.4
2017-Jan-21 16:18N 59°28' E 024°43'0 0.0
2017-Jan-21 15:29N 59°28' E 024°43'0 0.0
2017-Jan-21 14:30N 59°28' E 024°43'0 0.0
2017-Jan-21 13:33N 59°28' E 024°43'0 0.0
2017-Jan-21 12:33N 59°28' E 024°43'0 0.0
2017-Jan-21 11:26N 59°28' E 024°43'0 0.0
2017-Jan-21 10:32N 59°28' E 024°43'0 0.0
2017-Jan-20 13:31N 59°27' E 024°43'2 1.8
2017-Jan-20 12:29N 59°27' E 024°46'0 0.0
2017-Jan-20 11:32N 59°27' E 024°46'0 0.0
2017-Jan-20 10:33N 59°27' E 024°46'0 0.0
2017-Jan-20 09:32N 59°27' E 024°46'1 1.2
2017-Jan-20 08:33N 59°28' E 024°45'1 1.0
2017-Jan-20 07:33N 59°28' E 024°43'0 0.0
2017-Jan-20 06:33N 59°28' E 024°43'0 0.0
2017-Jan-20 05:30N 59°28' E 024°43'2 0.1
2017-Jan-19 11:25N 59°28' E 024°39'3 0.3
2017-Jan-18 23:22N 59°29' E 024°44'1 0.1
2017-Jan-18 16:33N 59°29' E 024°44'2 0.1
2017-Jan-17 12:33N 59°28' E 024°44'0 0.1
2017-Jan-17 08:33N 59°28' E 024°43'0 0.0
2017-Jan-17 07:19N 59°28' E 024°43'0 0.0
2017-Jan-17 04:17N 59°28' E 024°43'0 0.0
2017-Jan-17 03:30N 59°28' E 024°43'0 0.0
2017-Jan-17 02:31N 59°28' E 024°43'0 0.0
2017-Jan-17 01:33N 59°28' E 024°43'0 0.0
2017-Jan-17 00:10N 59°28' E 024°43'0 0.0
2017-Jan-16 23:33N 59°28' E 024°43'0 0.0
2017-Jan-16 22:33N 59°28' E 024°43'0 0.0
2017-Jan-16 21:33N 59°28' E 024°43'0 0.0
2017-Jan-16 20:33N 59°27' E 024°43'0 0.0
2017-Jan-16 19:33N 59°28' E 024°43'0 0.0
2017-Jan-16 18:33N 59°28' E 024°43'0 0.0
2017-Jan-16 17:33N 59°28' E 024°43'0 0.0
2017-Jan-16 16:33N 59°28' E 024°43'0 0.0
2017-Jan-16 15:33N 59°28' E 024°43'0 0.0
2017-Jan-16 14:33N 59°28' E 024°43'0 0.1
2017-Jan-16 13:31N 59°28' E 024°43'0 0.0
2017-Jan-16 07:29N 59°28' E 024°43'0 0.0
2017-Jan-16 06:26N 59°28' E 024°43'0 0.0
2017-Jan-16 05:30N 59°28' E 024°43'0 0.0
2017-Jan-16 04:33N 59°28' E 024°43'0 0.0
2017-Jan-16 03:31N 59°28' E 024°43'0 0.0
2017-Jan-16 02:30N 59°28' E 024°43'0 0.4
2017-Jan-16 01:30N 59°28' E 024°44'0 0.0
2017-Jan-15 10:33N 59°28' E 024°43'0 0.1
2017-Jan-15 09:33N 59°28' E 024°43'0 0.0
2017-Jan-15 08:32N 59°28' E 024°43'0 0.0
2017-Jan-15 07:33N 59°28' E 024°43'1 0.5
2017-Jan-15 06:30N 59°28' E 024°44'0 0.0
2017-Jan-14 19:13N 59°28' E 024°44'1 1.3
2017-Jan-14 18:34N 59°27' E 024°43'0 0.0
2017-Jan-14 17:33N 59°28' E 024°43'0 0.0
2017-Jan-14 16:33N 59°28' E 024°43'0 0.0
2017-Jan-14 15:34N 59°27' E 024°43'2 1.8
2017-Jan-14 14:33N 59°27' E 024°46'0 0.4
2017-Jan-14 13:32N 59°27' E 024°46'0 0.0
2017-Jan-14 12:26N 59°27' E 024°46'0 0.0
2017-Jan-14 11:32N 59°27' E 024°46'0 0.0
2017-Jan-14 10:27N 59°27' E 024°46'0 0.0
2017-Jan-14 09:12N 59°27' E 024°46'2 3.0
2017-Jan-14 08:33N 59°28' E 024°43'0 0.1
2017-Jan-14 07:28N 59°28' E 024°43'0 0.0
2017-Jan-14 06:05N 59°28' E 024°43'0 0.0
2017-Jan-14 05:20N 59°28' E 024°43'0 0.0
2017-Jan-14 04:33N 59°28' E 024°43'0 0.0
2017-Jan-14 03:32N 59°28' E 024°43'0 0.0
2017-Jan-13 23:33N 59°28' E 024°43'0 0.0
2017-Jan-13 22:29N 59°28' E 024°43'0 0.0
2017-Jan-13 21:31N 59°28' E 024°43'3 2.8
2017-Jan-13 20:29N 59°28' E 024°37'1 1.3
2017-Jan-13 19:30N 59°28' E 024°39'0 0.0
2017-Jan-13 13:30N 59°28' E 024°39'3 2.3
2017-Jan-13 12:17N 59°28' E 024°44'1 1.0
2017-Jan-13 11:03N 59°28' E 024°43'0 0.0
2017-Jan-13 10:19N 59°27' E 024°43'0 0.0
2017-Jan-13 09:30N 59°28' E 024°43'0 0.0
2017-Jan-13 07:33N 59°28' E 024°43'3 0.2
2017-Jan-12 16:32N 59°28' E 024°38'0 0.0
2017-Jan-12 07:33N 59°27' E 024°38'  
Track history (hours):
 
Tides and Currents Weather Stations Pressure Air Temp Water Temp Dewpoint Dewpoint Depression Visibility Wind Speed Wind Dir Waves Ship Positions

Viimsi

Last reported at 2017-Jan-21 23:06 UTC. Time now 2017-Jan-22 06:05 UTC.
Position N 59°29' E 024°33'.

Length 78 m; draft 4 m.

Type: Ship. MMSI: 276297000.

Date/timePositionNaut miles runAvg speedWind from/ knotsBaromVisibWave heightAir tempDewpointWater temp
2017-Jan-21 23:06N 59°29' E 024°33'0 0.0
2017-Jan-21 20:13N 59°29' E 024°33'5 1.4
2017-Jan-21 16:18N 59°28' E 024°43'0 0.0
2017-Jan-21 15:29N 59°28' E 024°43'0 0.0
2017-Jan-21 14:30N 59°28' E 024°43'0 0.0
2017-Jan-21 13:33N 59°28' E 024°43'0 0.0
2017-Jan-21 12:33N 59°28' E 024°43'0 0.0
2017-Jan-21 11:26N 59°28' E 024°43'0 0.0
2017-Jan-21 10:32N 59°28' E 024°43'0 0.0
2017-Jan-20 13:31N 59°27' E 024°43'2 1.8
2017-Jan-20 12:29N 59°27' E 024°46'0 0.0
2017-Jan-20 11:32N 59°27' E 024°46'0 0.0
2017-Jan-20 10:33N 59°27' E 024°46'0 0.0
2017-Jan-20 09:32N 59°27' E 024°46'1 1.2
2017-Jan-20 08:33N 59°28' E 024°45'1 1.0
2017-Jan-20 07:33N 59°28' E 024°43'0 0.0
2017-Jan-20 06:33N 59°28' E 024°43'0 0.0
2017-Jan-20 05:30N 59°28' E 024°43'2 0.1
2017-Jan-19 11:25N 59°28' E 024°39'3 0.3
2017-Jan-18 23:22N 59°29' E 024°44'1 0.1
2017-Jan-18 16:33N 59°29' E 024°44'2 0.1
2017-Jan-17 12:33N 59°28' E 024°44'0 0.1
2017-Jan-17 08:33N 59°28' E 024°43'0 0.0
2017-Jan-17 07:19N 59°28' E 024°43'0 0.0
2017-Jan-17 04:17N 59°28' E 024°43'0 0.0
2017-Jan-17 03:30N 59°28' E 024°43'0 0.0
2017-Jan-17 02:31N 59°28' E 024°43'0 0.0
2017-Jan-17 01:33N 59°28' E 024°43'0 0.0
2017-Jan-17 00:10N 59°28' E 024°43'0 0.0
2017-Jan-16 23:33N 59°28' E 024°43'0 0.0
2017-Jan-16 22:33N 59°28' E 024°43'0 0.0
2017-Jan-16 21:33N 59°28' E 024°43'0 0.0
2017-Jan-16 20:33N 59°27' E 024°43'0 0.0
2017-Jan-16 19:33N 59°28' E 024°43'0 0.0
2017-Jan-16 18:33N 59°28' E 024°43'0 0.0
2017-Jan-16 17:33N 59°28' E 024°43'0 0.0
2017-Jan-16 16:33N 59°28' E 024°43'0 0.0
2017-Jan-16 15:33N 59°28' E 024°43'0 0.0
2017-Jan-16 14:33N 59°28' E 024°43'0 0.1
2017-Jan-16 13:31N 59°28' E 024°43'0 0.0
2017-Jan-16 07:29N 59°28' E 024°43'0 0.0
2017-Jan-16 06:26N 59°28' E 024°43'0 0.0
2017-Jan-16 05:30N 59°28' E 024°43'0 0.0
2017-Jan-16 04:33N 59°28' E 024°43'0 0.0
2017-Jan-16 03:31N 59°28' E 024°43'0 0.0
2017-Jan-16 02:30N 59°28' E 024°43'0 0.4
2017-Jan-16 01:30N 59°28' E 024°44'0 0.0
2017-Jan-15 10:33N 59°28' E 024°43'0 0.1
2017-Jan-15 09:33N 59°28' E 024°43'0 0.0
2017-Jan-15 08:32N 59°28' E 024°43'0 0.0
2017-Jan-15 07:33N 59°28' E 024°43'1 0.5
2017-Jan-15 06:30N 59°28' E 024°44'0 0.0
2017-Jan-14 19:13N 59°28' E 024°44'1 1.3
2017-Jan-14 18:34N 59°27' E 024°43'0 0.0
2017-Jan-14 17:33N 59°28' E 024°43'0 0.0
2017-Jan-14 16:33N 59°28' E 024°43'0 0.0
2017-Jan-14 15:34N 59°27' E 024°43'2 1.8
2017-Jan-14 14:33N 59°27' E 024°46'0 0.4
2017-Jan-14 13:32N 59°27' E 024°46'0 0.0
2017-Jan-14 12:26N 59°27' E 024°46'0 0.0
2017-Jan-14 11:32N 59°27' E 024°46'0 0.0
2017-Jan-14 10:27N 59°27' E 024°46'0 0.0
2017-Jan-14 09:12N 59°27' E 024°46'2 3.0
2017-Jan-14 08:33N 59°28' E 024°43'0 0.1
2017-Jan-14 07:28N 59°28' E 024°43'0 0.0
2017-Jan-14 06:05N 59°28' E 024°43'0 0.0
2017-Jan-14 05:20N 59°28' E 024°43'0 0.0
2017-Jan-14 04:33N 59°28' E 024°43'0 0.0
2017-Jan-14 03:32N 59°28' E 024°43'0 0.0
2017-Jan-13 23:33N 59°28' E 024°43'0 0.0
2017-Jan-13 22:29N 59°28' E 024°43'0 0.0
2017-Jan-13 21:31N 59°28' E 024°43'3 2.8
2017-Jan-13 20:29N 59°28' E 024°37'1 1.3
2017-Jan-13 19:30N 59°28' E 024°39'0 0.0
2017-Jan-13 13:30N 59°28' E 024°39'3 2.3
2017-Jan-13 12:17N 59°28' E 024°44'1 1.0
2017-Jan-13 11:03N 59°28' E 024°43'0 0.0
2017-Jan-13 10:19N 59°27' E 024°43'0 0.0
2017-Jan-13 09:30N 59°28' E 024°43'0 0.0
2017-Jan-13 07:33N 59°28' E 024°43'3 0.2
2017-Jan-12 16:32N 59°28' E 024°38'0 0.0
2017-Jan-12 07:33N 59°27' E 024°38'  

Dump ship's entire track history